sensor_id;sensor_type;location;lat;lon;timestamp;pressure;altitude;pressure_sealevel;temperature;humidity
64644;BME280;51056;50.330;7.914;2023-12-22T00:00:21;99260.91;;;5.56;96.74
64644;BME280;51056;50.330;7.914;2023-12-22T00:03:24;99262.91;;;5.51;97.87
64644;BME280;51056;50.330;7.914;2023-12-22T00:06:27;99248.03;;;5.54;98.90
64644;BME280;51056;50.330;7.914;2023-12-22T00:09:30;99261.03;;;5.70;99.48
64644;BME280;51056;50.330;7.914;2023-12-22T00:12:33;99267.56;;;5.77;98.51
64644;BME280;51056;50.330;7.914;2023-12-22T00:15:37;99246.25;;;5.55;100.00
64644;BME280;51056;50.330;7.914;2023-12-22T00:18:40;99249.81;;;5.36;99.31
64644;BME280;51056;50.330;7.914;2023-12-22T00:21:44;99234.81;;;5.26;99.27
64644;BME280;51056;50.330;7.914;2023-12-22T00:24:47;99244.34;;;5.25;99.63
64644;BME280;51056;50.330;7.914;2023-12-22T00:27:50;99266.06;;;5.23;98.74
64644;BME280;51056;50.330;7.914;2023-12-22T00:30:53;99233.75;;;5.30;99.83
64644;BME280;51056;50.330;7.914;2023-12-22T00:33:56;99223.03;;;5.20;98.86
64644;BME280;51056;50.330;7.914;2023-12-22T00:37:00;99215.25;;;5.20;99.35
64644;BME280;51056;50.330;7.914;2023-12-22T00:40:03;99202.16;;;5.39;97.82
64644;BME280;51056;50.330;7.914;2023-12-22T00:43:08;99202.53;;;5.49;98.16
64644;BME280;51056;50.330;7.914;2023-12-22T00:46:12;99214.28;;;5.39;96.75
64644;BME280;51056;50.330;7.914;2023-12-22T00:49:18;99232.56;;;5.35;96.05
64644;BME280;51056;50.330;7.914;2023-12-22T00:52:21;99238.38;;;5.41;96.68
64644;BME280;51056;50.330;7.914;2023-12-22T00:55:25;99235.88;;;5.55;95.10
64644;BME280;51056;50.330;7.914;2023-12-22T00:58:29;99214.81;;;5.61;93.69
64644;BME280;51056;50.330;7.914;2023-12-22T01:01:32;99254.41;;;5.65;94.12
64644;BME280;51056;50.330;7.914;2023-12-22T01:04:36;99297.19;;;5.73;91.65
64644;BME280;51056;50.330;7.914;2023-12-22T01:07:39;99346.59;;;5.88;93.91
64644;BME280;51056;50.330;7.914;2023-12-22T01:10:42;99358.19;;;5.80;94.33
64644;BME280;51056;50.330;7.914;2023-12-22T01:13:45;99336.69;;;5.61;93.09
64644;BME280;51056;50.330;7.914;2023-12-22T01:16:49;99358.25;;;5.46;91.09
64644;BME280;51056;50.330;7.914;2023-12-22T01:19:52;99362.19;;;5.53;92.45
64644;BME280;51056;50.330;7.914;2023-12-22T01:22:56;99361.19;;;5.38;91.37
64644;BME280;51056;50.330;7.914;2023-12-22T01:25:59;99386.84;;;5.62;92.75
64644;BME280;51056;50.330;7.914;2023-12-22T01:29:03;99391.22;;;5.77;92.31
64644;BME280;51056;50.330;7.914;2023-12-22T01:32:06;99383.66;;;5.90;91.51
64644;BME280;51056;50.330;7.914;2023-12-22T01:35:10;99369.94;;;5.70;94.00
64644;BME280;51056;50.330;7.914;2023-12-22T01:38:13;99367.75;;;5.45;94.87
64644;BME280;51056;50.330;7.914;2023-12-22T01:41:16;99371.31;;;5.25;92.74
64644;BME280;51056;50.330;7.914;2023-12-22T01:44:20;99370.16;;;5.13;94.52
64644;BME280;51056;50.330;7.914;2023-12-22T01:47:23;99372.88;;;5.47;95.57
64644;BME280;51056;50.330;7.914;2023-12-22T01:50:27;99361.59;;;5.65;96.28
64644;BME280;51056;50.330;7.914;2023-12-22T01:53:32;99354.53;;;5.67;97.35
64644;BME280;51056;50.330;7.914;2023-12-22T01:56:36;99345.06;;;5.33;93.60
64644;BME280;51056;50.330;7.914;2023-12-22T01:59:39;99368.22;;;5.36;94.48
64644;BME280;51056;50.330;7.914;2023-12-22T02:02:42;99350.09;;;5.36;92.21
64644;BME280;51056;50.330;7.914;2023-12-22T02:05:46;99358.81;;;4.99;93.64
64644;BME280;51056;50.330;7.914;2023-12-22T02:08:49;99357.44;;;5.09;94.67
64644;BME280;51056;50.330;7.914;2023-12-22T02:11:53;99344.66;;;5.41;94.64
64644;BME280;51056;50.330;7.914;2023-12-22T02:14:56;99351.69;;;5.56;96.40
64644;BME280;51056;50.330;7.914;2023-12-22T02:21:07;99348.91;;;5.42;98.26
64644;BME280;51056;50.330;7.914;2023-12-22T02:24:10;99349.97;;;5.55;98.04
64644;BME280;51056;50.330;7.914;2023-12-22T02:27:25;99344.47;;;5.61;98.11
64644;BME280;51056;50.330;7.914;2023-12-22T02:33:47;99334.88;;;5.28;95.24
64644;BME280;51056;50.330;7.914;2023-12-22T02:36:53;99311.22;;;5.52;96.38
64644;BME280;51056;50.330;7.914;2023-12-22T02:39:58;99321.47;;;5.38;96.71
64644;BME280;51056;50.330;7.914;2023-12-22T02:43:02;99325.66;;;5.23;96.14
64644;BME280;51056;50.330;7.914;2023-12-22T02:46:14;99331.31;;;5.31;97.69
64644;BME280;51056;50.330;7.914;2023-12-22T02:49:18;99332.91;;;5.16;97.63
64644;BME280;51056;50.330;7.914;2023-12-22T02:52:21;99330.59;;;5.10;98.07
64644;BME280;51056;50.330;7.914;2023-12-22T02:55:24;99322.97;;;5.07;98.20
64644;BME280;51056;50.330;7.914;2023-12-22T02:58:27;99333.34;;;5.07;99.81
64644;BME280;51056;50.330;7.914;2023-12-22T03:01:31;99347.91;;;5.09;99.61
64644;BME280;51056;50.330;7.914;2023-12-22T03:04:34;99340.53;;;5.36;99.59
64644;BME280;51056;50.330;7.914;2023-12-22T03:07:37;99356.00;;;5.38;99.69
64644;BME280;51056;50.330;7.914;2023-12-22T03:10:40;99343.44;;;5.48;99.67
64644;BME280;51056;50.330;7.914;2023-12-22T03:13:43;99339.63;;;5.38;99.26
64644;BME280;51056;50.330;7.914;2023-12-22T03:16:47;99332.91;;;5.51;98.78
64644;BME280;51056;50.330;7.914;2023-12-22T03:19:50;99339.97;;;5.65;99.91
64644;BME280;51056;50.330;7.914;2023-12-22T03:22:53;99325.41;;;5.79;99.52
64644;BME280;51056;50.330;7.914;2023-12-22T03:25:57;99339.44;;;5.58;100.00
64644;BME280;51056;50.330;7.914;2023-12-22T03:29:00;99342.41;;;5.68;100.00
64644;BME280;51056;50.330;7.914;2023-12-22T03:32:03;99321.38;;;5.56;100.00
64644;BME280;51056;50.330;7.914;2023-12-22T03:35:07;99320.03;;;5.49;99.23
64644;BME280;51056;50.330;7.914;2023-12-22T03:38:10;99300.13;;;5.50;98.18
64644;BME280;51056;50.330;7.914;2023-12-22T03:41:14;99296.59;;;5.51;96.02
64644;BME280;51056;50.330;7.914;2023-12-22T03:44:17;99284.56;;;5.50;95.95
64644;BME280;51056;50.330;7.914;2023-12-22T03:47:20;99267.50;;;5.46;96.02
64644;BME280;51056;50.330;7.914;2023-12-22T03:50:23;99271.50;;;5.69;95.09
64644;BME280;51056;50.330;7.914;2023-12-22T03:53:27;99291.47;;;5.67;95.47
64644;BME280;51056;50.330;7.914;2023-12-22T03:56:30;99289.25;;;5.76;93.36
64644;BME280;51056;50.330;7.914;2023-12-22T03:59:33;99320.81;;;5.85;93.91
64644;BME280;51056;50.330;7.914;2023-12-22T04:02:37;99324.81;;;5.90;92.28
64644;BME280;51056;50.330;7.914;2023-12-22T04:05:40;99323.88;;;5.93;93.34
64644;BME280;51056;50.330;7.914;2023-12-22T04:08:43;99321.56;;;6.04;94.13
64644;BME280;51056;50.330;7.914;2023-12-22T04:11:47;99316.84;;;5.95;93.77
64644;BME280;51056;50.330;7.914;2023-12-22T04:14:50;99317.47;;;6.00;94.14
64644;BME280;51056;50.330;7.914;2023-12-22T04:17:54;99323.22;;;6.05;95.42
64644;BME280;51056;50.330;7.914;2023-12-22T04:20:58;99327.22;;;5.95;96.01
64644;BME280;51056;50.330;7.914;2023-12-22T04:24:01;99314.34;;;6.09;95.99
64644;BME280;51056;50.330;7.914;2023-12-22T04:27:04;99321.56;;;6.04;94.38
64644;BME280;51056;50.330;7.914;2023-12-22T04:30:08;99322.91;;;6.11;95.14
64644;BME280;51056;50.330;7.914;2023-12-22T04:33:11;99326.44;;;6.10;96.55
64644;BME280;51056;50.330;7.914;2023-12-22T04:36:14;99314.03;;;6.15;90.58
64644;BME280;51056;50.330;7.914;2023-12-22T04:39:18;99339.34;;;6.27;91.18
64644;BME280;51056;50.330;7.914;2023-12-22T04:42:21;99342.19;;;6.23;91.95
64644;BME280;51056;50.330;7.914;2023-12-22T04:45:24;99341.84;;;6.13;90.93
64644;BME280;51056;50.330;7.914;2023-12-22T04:48:27;99344.75;;;6.07;92.50
64644;BME280;51056;50.330;7.914;2023-12-22T04:51:31;99333.03;;;6.00;93.27
64644;BME280;51056;50.330;7.914;2023-12-22T04:54:34;99329.41;;;6.02;93.39
64644;BME280;51056;50.330;7.914;2023-12-22T04:57:37;99324.72;;;6.09;93.22
64644;BME280;51056;50.330;7.914;2023-12-22T05:00:41;99324.31;;;6.01;92.47
64644;BME280;51056;50.330;7.914;2023-12-22T05:03:44;99328.34;;;6.07;91.51
64644;BME280;51056;50.330;7.914;2023-12-22T05:06:49;99321.97;;;6.12;91.42
64644;BME280;51056;50.330;7.914;2023-12-22T05:09:52;99326.59;;;6.07;91.99
64644;BME280;51056;50.330;7.914;2023-12-22T05:13:10;99334.88;;;6.14;90.13
64644;BME280;51056;50.330;7.914;2023-12-22T05:16:14;99316.94;;;6.09;90.13
64644;BME280;51056;50.330;7.914;2023-12-22T05:19:18;99309.94;;;6.11;90.01
64644;BME280;51056;50.330;7.914;2023-12-22T05:22:21;99324.41;;;6.15;91.78
64644;BME280;51056;50.330;7.914;2023-12-22T05:25:25;99313.00;;;6.02;91.88
64644;BME280;51056;50.330;7.914;2023-12-22T05:28:28;99326.25;;;6.13;91.90
64644;BME280;51056;50.330;7.914;2023-12-22T05:31:32;99320.03;;;6.16;90.69
64644;BME280;51056;50.330;7.914;2023-12-22T05:34:36;99322.22;;;6.08;90.43
64644;BME280;51056;50.330;7.914;2023-12-22T05:37:39;99335.09;;;6.09;91.00
64644;BME280;51056;50.330;7.914;2023-12-22T05:40:42;99314.44;;;6.08;91.17
64644;BME280;51056;50.330;7.914;2023-12-22T05:43:45;99318.03;;;6.05;91.32
64644;BME280;51056;50.330;7.914;2023-12-22T05:46:49;99337.13;;;6.04;91.12
64644;BME280;51056;50.330;7.914;2023-12-22T05:50:12;99355.19;;;6.05;91.49
64644;BME280;51056;50.330;7.914;2023-12-22T05:53:17;99364.38;;;6.13;89.75
64644;BME280;51056;50.330;7.914;2023-12-22T05:56:21;99354.41;;;6.21;89.24
64644;BME280;51056;50.330;7.914;2023-12-22T05:59:25;99354.06;;;6.27;89.19
64644;BME280;51056;50.330;7.914;2023-12-22T06:02:30;99367.16;;;6.25;88.96
64644;BME280;51056;50.330;7.914;2023-12-22T06:05:34;99368.50;;;6.33;89.55
64644;BME280;51056;50.330;7.914;2023-12-22T06:08:38;99358.50;;;6.41;88.07
64644;BME280;51056;50.330;7.914;2023-12-22T06:11:41;99358.50;;;6.41;88.29
64644;BME280;51056;50.330;7.914;2023-12-22T06:14:44;99362.66;;;6.45;88.30
64644;BME280;51056;50.330;7.914;2023-12-22T06:17:47;99349.41;;;6.49;87.50
64644;BME280;51056;50.330;7.914;2023-12-22T06:20:51;99362.88;;;6.56;86.68
64644;BME280;51056;50.330;7.914;2023-12-22T06:23:54;99353.44;;;6.55;85.95
64644;BME280;51056;50.330;7.914;2023-12-22T06:26:58;99338.59;;;6.57;86.68
64644;BME280;51056;50.330;7.914;2023-12-22T06:30:01;99354.88;;;6.61;84.48
64644;BME280;51056;50.330;7.914;2023-12-22T06:33:04;99363.81;;;6.71;83.78
64644;BME280;51056;50.330;7.914;2023-12-22T06:36:17;99352.44;;;6.73;83.13
64644;BME280;51056;50.330;7.914;2023-12-22T06:39:21;99355.44;;;6.82;80.89
64644;BME280;51056;50.330;7.914;2023-12-22T06:42:24;99355.44;;;6.82;81.50
64644;BME280;51056;50.330;7.914;2023-12-22T06:45:27;99362.50;;;6.80;83.29
64644;BME280;51056;50.330;7.914;2023-12-22T06:48:32;99365.91;;;6.80;82.17
64644;BME280;51056;50.330;7.914;2023-12-22T06:51:37;99369.75;;;6.89;80.27
64644;BME280;51056;50.330;7.914;2023-12-22T06:54:40;99358.28;;;6.93;81.04
64644;BME280;51056;50.330;7.914;2023-12-22T06:57:44;99349.81;;;6.89;80.88
64644;BME280;51056;50.330;7.914;2023-12-22T07:00:48;99355.59;;;6.94;80.74
64644;BME280;51056;50.330;7.914;2023-12-22T07:03:51;99359.78;;;6.97;80.87
64644;BME280;51056;50.330;7.914;2023-12-22T07:06:54;99371.81;;;7.14;79.98
64644;BME280;51056;50.330;7.914;2023-12-22T07:09:58;99388.41;;;7.11;80.52
64644;BME280;51056;50.330;7.914;2023-12-22T07:13:37;99414.41;;;7.11;81.81
64644;BME280;51056;50.330;7.914;2023-12-22T07:16:40;99408.22;;;6.98;83.50
64644;BME280;51056;50.330;7.914;2023-12-22T07:19:43;99401.44;;;6.95;84.98
64644;BME280;51056;50.330;7.914;2023-12-22T07:22:47;99422.06;;;6.98;83.94
64644;BME280;51056;50.330;7.914;2023-12-22T07:25:50;99435.56;;;7.05;83.66
64644;BME280;51056;50.330;7.914;2023-12-22T07:28:54;99455.66;;;7.02;84.55
64644;BME280;51056;50.330;7.914;2023-12-22T07:31:57;99437.91;;;7.10;83.30
64644;BME280;51056;50.330;7.914;2023-12-22T07:35:00;99432.53;;;7.13;83.55
64644;BME280;51056;50.330;7.914;2023-12-22T07:38:06;99440.78;;;7.05;84.64
64644;BME280;51056;50.330;7.914;2023-12-22T07:41:09;99447.47;;;7.09;83.22
64644;BME280;51056;50.330;7.914;2023-12-22T07:44:12;99443.94;;;7.10;84.39
64644;BME280;51056;50.330;7.914;2023-12-22T07:47:15;99451.16;;;7.05;83.99
64644;BME280;51056;50.330;7.914;2023-12-22T07:50:18;99463.13;;;6.92;80.31
64644;BME280;51056;50.330;7.914;2023-12-22T07:53:22;99469.00;;;6.80;80.45
64644;BME280;51056;50.330;7.914;2023-12-22T07:56:25;99481.56;;;6.38;83.54
64644;BME280;51056;50.330;7.914;2023-12-22T07:59:29;99486.00;;;6.19;87.24
64644;BME280;51056;50.330;7.914;2023-12-22T08:02:32;99513.66;;;6.02;90.63
64644;BME280;51056;50.330;7.914;2023-12-22T08:05:35;99486.28;;;5.97;92.52
64644;BME280;51056;50.330;7.914;2023-12-22T08:08:38;99469.44;;;5.87;93.02
64644;BME280;51056;50.330;7.914;2023-12-22T08:11:41;99480.44;;;5.92;92.86
64644;BME280;51056;50.330;7.914;2023-12-22T08:14:44;99477.56;;;5.98;91.85
64644;BME280;51056;50.330;7.914;2023-12-22T08:17:49;99485.03;;;6.04;92.39
64644;BME280;51056;50.330;7.914;2023-12-22T08:20:53;99484.25;;;6.02;92.08
64644;BME280;51056;50.330;7.914;2023-12-22T08:23:59;99477.84;;;6.09;92.76
64644;BME280;51056;50.330;7.914;2023-12-22T08:27:03;99481.22;;;6.11;92.11
64644;BME280;51056;50.330;7.914;2023-12-22T08:30:16;99477.22;;;6.21;93.01
64644;BME280;51056;50.330;7.914;2023-12-22T08:33:19;99472.03;;;6.21;94.68
64644;BME280;51056;50.330;7.914;2023-12-22T08:36:23;99469.91;;;6.12;93.37
64644;BME280;51056;50.330;7.914;2023-12-22T08:39:29;99450.38;;;6.22;93.54
64644;BME280;51056;50.330;7.914;2023-12-22T08:42:39;99461.28;;;6.12;94.53
64644;BME280;51056;50.330;7.914;2023-12-22T08:45:42;99461.84;;;6.01;96.25
64644;BME280;51056;50.330;7.914;2023-12-22T08:48:46;99471.50;;;6.15;96.65
64644;BME280;51056;50.330;7.914;2023-12-22T08:51:49;99486.13;;;6.00;98.97
64644;BME280;51056;50.330;7.914;2023-12-22T08:54:52;99494.31;;;5.91;99.69
64644;BME280;51056;50.330;7.914;2023-12-22T08:57:55;99491.84;;;6.07;100.00
64644;BME280;51056;50.330;7.914;2023-12-22T09:00:58;99490.53;;;5.98;100.00
64644;BME280;51056;50.330;7.914;2023-12-22T09:04:03;99485.78;;;6.06;100.00
64644;BME280;51056;50.330;7.914;2023-12-22T09:07:06;99473.41;;;6.28;99.78
64644;BME280;51056;50.330;7.914;2023-12-22T09:10:10;99474.63;;;6.39;98.21
64644;BME280;51056;50.330;7.914;2023-12-22T09:13:15;99477.69;;;6.29;98.53
64644;BME280;51056;50.330;7.914;2023-12-22T09:16:22;99464.81;;;6.44;98.33
64644;BME280;51056;50.330;7.914;2023-12-22T09:19:26;99453.56;;;6.27;98.09
64644;BME280;51056;50.330;7.914;2023-12-22T09:22:30;99455.50;;;6.40;97.22
64644;BME280;51056;50.330;7.914;2023-12-22T09:25:34;99456.13;;;6.45;97.39
64644;BME280;51056;50.330;7.914;2023-12-22T09:28:37;99469.94;;;6.45;97.46
64644;BME280;51056;50.330;7.914;2023-12-22T09:31:40;99466.19;;;6.51;97.16
64644;BME280;51056;50.330;7.914;2023-12-22T09:34:44;99469.06;;;6.62;96.72
64644;BME280;51056;50.330;7.914;2023-12-22T09:37:50;99461.53;;;6.73;95.59
64644;BME280;51056;50.330;7.914;2023-12-22T09:40:53;99462.38;;;6.74;95.73
64644;BME280;51056;50.330;7.914;2023-12-22T09:43:59;99455.81;;;6.83;95.16
64644;BME280;51056;50.330;7.914;2023-12-22T09:47:05;99455.66;;;6.86;95.33
64644;BME280;51056;50.330;7.914;2023-12-22T09:50:10;99458.97;;;6.89;94.82
64644;BME280;51056;50.330;7.914;2023-12-22T09:53:14;99446.47;;;6.96;94.42
64644;BME280;51056;50.330;7.914;2023-12-22T09:56:18;99447.03;;;7.01;93.84
64644;BME280;51056;50.330;7.914;2023-12-22T09:59:22;99446.81;;;7.06;93.93
64644;BME280;51056;50.330;7.914;2023-12-22T10:02:29;99441.44;;;7.09;93.19
64644;BME280;51056;50.330;7.914;2023-12-22T10:05:33;99441.94;;;7.15;93.99
64644;BME280;51056;50.330;7.914;2023-12-22T10:08:37;99425.34;;;7.18;93.53
64644;BME280;51056;50.330;7.914;2023-12-22T10:11:47;99411.91;;;7.26;92.12
64644;BME280;51056;50.330;7.914;2023-12-22T10:14:54;99407.53;;;7.26;92.03
64644;BME280;51056;50.330;7.914;2023-12-22T10:17:57;99402.16;;;7.29;91.37
64644;BME280;51056;50.330;7.914;2023-12-22T10:21:01;99405.34;;;7.34;90.95
64644;BME280;51056;50.330;7.914;2023-12-22T10:24:05;99399.69;;;7.42;90.66
64644;BME280;51056;50.330;7.914;2023-12-22T10:27:10;99396.75;;;7.48;90.72
64644;BME280;51056;50.330;7.914;2023-12-22T10:30:14;99397.69;;;7.47;90.53
64644;BME280;51056;50.330;7.914;2023-12-22T10:33:18;99388.00;;;7.49;90.57
64644;BME280;51056;50.330;7.914;2023-12-22T10:36:22;99378.06;;;7.56;90.31
64644;BME280;51056;50.330;7.914;2023-12-22T10:39:29;99359.50;;;7.62;90.67
64644;BME280;51056;50.330;7.914;2023-12-22T10:42:33;99356.91;;;7.62;91.26
64644;BME280;51056;50.330;7.914;2023-12-22T10:45:40;99352.38;;;7.65;90.91
64644;BME280;51056;50.330;7.914;2023-12-22T10:48:48;99345.25;;;7.69;90.07
64644;BME280;51056;50.330;7.914;2023-12-22T10:51:51;99354.25;;;7.63;91.98
64644;BME280;51056;50.330;7.914;2023-12-22T10:54:57;99341.47;;;7.59;93.26
64644;BME280;51056;50.330;7.914;2023-12-22T10:58:02;99339.72;;;7.59;92.91
64644;BME280;51056;50.330;7.914;2023-12-22T11:01:07;99321.06;;;7.67;93.19
64644;BME280;51056;50.330;7.914;2023-12-22T11:04:13;99318.28;;;7.70;92.22
64644;BME280;51056;50.330;7.914;2023-12-22T11:07:23;99324.31;;;7.71;91.92
64644;BME280;51056;50.330;7.914;2023-12-22T11:10:27;99323.50;;;7.70;92.31
64644;BME280;51056;50.330;7.914;2023-12-22T11:13:31;99319.47;;;7.64;94.62
64644;BME280;51056;50.330;7.914;2023-12-22T11:16:35;99321.44;;;7.61;95.05
64644;BME280;51056;50.330;7.914;2023-12-22T11:19:40;99317.53;;;7.54;96.98
64644;BME280;51056;50.330;7.914;2023-12-22T11:22:44;99309.78;;;7.52;98.14
64644;BME280;51056;50.330;7.914;2023-12-22T11:25:48;99317.13;;;7.45;99.61
64644;BME280;51056;50.330;7.914;2023-12-22T11:28:53;99304.94;;;7.46;99.27
64644;BME280;51056;50.330;7.914;2023-12-22T11:31:57;99294.38;;;7.49;99.36
64644;BME280;51056;50.330;7.914;2023-12-22T11:35:03;99284.50;;;7.40;100.00
64644;BME280;51056;50.330;7.914;2023-12-22T11:38:10;99287.09;;;7.40;100.00
64644;BME280;51056;50.330;7.914;2023-12-22T11:41:18;99289.72;;;7.40;100.00
64644;BME280;51056;50.330;7.914;2023-12-22T11:44:24;99297.69;;;7.37;100.00
64644;BME280;51056;50.330;7.914;2023-12-22T11:47:27;99292.41;;;7.38;100.00
64644;BME280;51056;50.330;7.914;2023-12-22T11:50:31;99294.84;;;7.41;100.00
64644;BME280;51056;50.330;7.914;2023-12-22T11:53:34;99288.50;;;7.45;100.00
64644;BME280;51056;50.330;7.914;2023-12-22T11:56:39;99280.72;;;7.45;100.00
64644;BME280;51056;50.330;7.914;2023-12-22T11:59:44;99279.59;;;7.50;100.00
64644;BME280;51056;50.330;7.914;2023-12-22T12:02:54;99275.53;;;7.60;100.00
64644;BME280;51056;50.330;7.914;2023-12-22T12:06:14;99281.22;;;7.66;100.00
64644;BME280;51056;50.330;7.914;2023-12-22T12:09:45;99266.91;;;7.74;100.00
64644;BME280;51056;50.330;7.914;2023-12-22T12:13:09;99272.19;;;7.86;98.39
64644;BME280;51056;50.330;7.914;2023-12-22T12:16:14;99277.41;;;7.86;98.55
64644;BME280;51056;50.330;7.914;2023-12-22T12:19:21;99260.75;;;7.89;98.29
64644;BME280;51056;50.330;7.914;2023-12-22T12:22:38;99255.38;;;7.92;98.80
64644;BME280;51056;50.330;7.914;2023-12-22T12:25:47;99262.06;;;7.96;98.52
64644;BME280;51056;50.330;7.914;2023-12-22T12:28:52;99253.88;;;7.88;99.88
64644;BME280;51056;50.330;7.914;2023-12-22T12:32:04;99261.06;;;8.26;100.00
64644;BME280;51056;50.330;7.914;2023-12-22T12:35:12;99256.59;;;8.28;100.00
64644;BME280;51056;50.330;7.914;2023-12-22T12:38:24;99260.38;;;7.95;100.00
64644;BME280;51056;50.330;7.914;2023-12-22T12:41:48;99261.88;;;7.85;100.00
64644;BME280;51056;50.330;7.914;2023-12-22T12:44:58;99242.88;;;7.97;100.00
64644;BME280;51056;50.330;7.914;2023-12-22T12:48:02;99258.88;;;7.91;100.00
64644;BME280;51056;50.330;7.914;2023-12-22T12:51:07;99257.22;;;7.90;100.00
64644;BME280;51056;50.330;7.914;2023-12-22T12:54:11;99261.31;;;7.94;100.00
64644;BME280;51056;50.330;7.914;2023-12-22T12:57:16;99268.91;;;7.97;100.00
64644;BME280;51056;50.330;7.914;2023-12-22T13:00:26;99268.72;;;8.00;100.00
64644;BME280;51056;50.330;7.914;2023-12-22T13:03:30;99273.41;;;7.95;100.00
64644;BME280;51056;50.330;7.914;2023-12-22T13:06:34;99284.53;;;7.97;100.00
64644;BME280;51056;50.330;7.914;2023-12-22T13:09:37;99283.06;;;7.93;100.00
64644;BME280;51056;50.330;7.914;2023-12-22T13:12:41;99275.06;;;7.96;100.00
64644;BME280;51056;50.330;7.914;2023-12-22T13:15:45;99265.22;;;8.01;100.00
64644;BME280;51056;50.330;7.914;2023-12-22T13:18:48;99270.88;;;8.08;100.00
64644;BME280;51056;50.330;7.914;2023-12-22T13:21:53;99274.41;;;8.07;100.00
64644;BME280;51056;50.330;7.914;2023-12-22T13:24:56;99262.59;;;8.15;100.00
64644;BME280;51056;50.330;7.914;2023-12-22T13:28:00;99277.63;;;8.25;100.00
64644;BME280;51056;50.330;7.914;2023-12-22T13:31:10;99259.78;;;8.33;100.00
64644;BME280;51056;50.330;7.914;2023-12-22T13:34:16;99264.22;;;8.45;100.00
64644;BME280;51056;50.330;7.914;2023-12-22T13:37:20;99273.34;;;8.52;100.00
64644;BME280;51056;50.330;7.914;2023-12-22T13:40:23;99260.25;;;8.67;99.31
64644;BME280;51056;50.330;7.914;2023-12-22T13:43:28;99259.72;;;8.61;99.48
64644;BME280;51056;50.330;7.914;2023-12-22T13:46:32;99269.53;;;8.71;99.33
64644;BME280;51056;50.330;7.914;2023-12-22T13:49:36;99273.44;;;8.78;96.85
64644;BME280;51056;50.330;7.914;2023-12-22T13:52:39;99257.78;;;8.78;96.65
64644;BME280;51056;50.330;7.914;2023-12-22T13:55:54;99249.84;;;8.79;95.28
64644;BME280;51056;50.330;7.914;2023-12-22T13:59:00;99247.38;;;8.78;99.13
64644;BME280;51056;50.330;7.914;2023-12-22T14:02:04;99240.66;;;8.74;98.14
64644;BME280;51056;50.330;7.914;2023-12-22T14:05:07;99236.31;;;8.74;96.44
64644;BME280;51056;50.330;7.914;2023-12-22T14:08:10;99222.97;;;8.79;96.71
64644;BME280;51056;50.330;7.914;2023-12-22T14:11:14;99220.03;;;8.83;96.72
64644;BME280;51056;50.330;7.914;2023-12-22T14:14:18;99226.63;;;8.89;94.38
64644;BME280;51056;50.330;7.914;2023-12-22T14:17:23;99229.97;;;8.91;94.78
64644;BME280;51056;50.330;7.914;2023-12-22T14:20:26;99228.63;;;8.98;92.22
64644;BME280;51056;50.330;7.914;2023-12-22T14:23:30;99253.78;;;9.12;89.10
64644;BME280;51056;50.330;7.914;2023-12-22T14:26:55;99255.03;;;9.06;90.39
64644;BME280;51056;50.330;7.914;2023-12-22T14:29:59;99271.75;;;9.17;89.59
64644;BME280;51056;50.330;7.914;2023-12-22T14:33:03;99247.09;;;9.08;90.89
64644;BME280;51056;50.330;7.914;2023-12-22T14:36:07;99245.88;;;9.14;88.88
64644;BME280;51056;50.330;7.914;2023-12-22T14:39:11;99251.50;;;9.20;88.11
64644;BME280;51056;50.330;7.914;2023-12-22T14:42:16;99271.53;;;9.20;89.91
64644;BME280;51056;50.330;7.914;2023-12-22T14:45:20;99267.25;;;9.19;88.47
64644;BME280;51056;50.330;7.914;2023-12-22T14:48:23;99270.31;;;9.25;89.03
64644;BME280;51056;50.330;7.914;2023-12-22T14:51:27;99264.97;;;9.27;86.56
64644;BME280;51056;50.330;7.914;2023-12-22T14:54:31;99266.53;;;9.29;86.45
64644;BME280;51056;50.330;7.914;2023-12-22T14:57:34;99257.78;;;9.30;86.89
64644;BME280;51056;50.330;7.914;2023-12-22T15:00:38;99268.34;;;9.42;84.61
64644;BME280;51056;50.330;7.914;2023-12-22T15:03:41;99285.75;;;9.41;84.69
64644;BME280;51056;50.330;7.914;2023-12-22T15:06:45;99283.88;;;9.43;85.46
64644;BME280;51056;50.330;7.914;2023-12-22T15:09:49;99273.56;;;9.42;85.29
64644;BME280;51056;50.330;7.914;2023-12-22T15:12:53;99270.00;;;9.43;84.40
64644;BME280;51056;50.330;7.914;2023-12-22T15:15:56;99285.03;;;9.39;86.26
64644;BME280;51056;50.330;7.914;2023-12-22T15:18:59;99279.41;;;9.45;84.73
64644;BME280;51056;50.330;7.914;2023-12-22T15:22:03;99294.72;;;9.37;86.05
64644;BME280;51056;50.330;7.914;2023-12-22T15:25:07;99306.69;;;9.27;88.28
64644;BME280;51056;50.330;7.914;2023-12-22T15:28:10;99314.41;;;9.16;89.09
64644;BME280;51056;50.330;7.914;2023-12-22T15:31:14;99304.06;;;9.14;88.54
64644;BME280;51056;50.330;7.914;2023-12-22T15:34:17;99317.09;;;9.14;88.06
64644;BME280;51056;50.330;7.914;2023-12-22T15:37:20;99332.88;;;9.13;88.19
64644;BME280;51056;50.330;7.914;2023-12-22T15:40:24;99313.34;;;9.18;87.35
64644;BME280;51056;50.330;7.914;2023-12-22T15:43:27;99326.81;;;9.25;86.88
64644;BME280;51056;50.330;7.914;2023-12-22T15:46:30;99323.31;;;9.26;87.76
64644;BME280;51056;50.330;7.914;2023-12-22T15:49:37;99317.66;;;9.19;88.88
64644;BME280;51056;50.330;7.914;2023-12-22T15:52:43;99329.44;;;9.25;86.94
64644;BME280;51056;50.330;7.914;2023-12-22T15:55:46;99337.25;;;9.25;87.52
64644;BME280;51056;50.330;7.914;2023-12-22T15:58:50;99341.44;;;9.27;87.33
64644;BME280;51056;50.330;7.914;2023-12-22T16:01:53;99336.34;;;9.26;88.91
64644;BME280;51056;50.330;7.914;2023-12-22T16:04:57;99319.13;;;9.23;89.82
64644;BME280;51056;50.330;7.914;2023-12-22T16:08:00;99327.22;;;9.19;90.01
64644;BME280;51056;50.330;7.914;2023-12-22T16:11:05;99329.19;;;9.15;91.16
64644;BME280;51056;50.330;7.914;2023-12-22T16:14:08;99336.38;;;9.12;92.24
64644;BME280;51056;50.330;7.914;2023-12-22T16:17:12;99345.16;;;9.11;91.73
64644;BME280;51056;50.330;7.914;2023-12-22T16:20:17;99352.88;;;9.12;92.38
64644;BME280;51056;50.330;7.914;2023-12-22T16:23:20;99357.25;;;9.12;91.47
64644;BME280;51056;50.330;7.914;2023-12-22T16:26:27;99376.91;;;9.17;89.89
64644;BME280;51056;50.330;7.914;2023-12-22T16:29:30;99376.28;;;9.26;90.28
64644;BME280;51056;50.330;7.914;2023-12-22T16:32:34;99358.56;;;9.31;88.52
64644;BME280;51056;50.330;7.914;2023-12-22T16:35:37;99350.84;;;9.30;89.54